createdAt,value
2023-03-29T00:01:35.789Z,7.32
2023-03-29T00:04:17.500Z,7.43
2023-03-29T00:06:51.701Z,7.57
2023-03-29T00:09:23.144Z,8.35
2023-03-29T00:11:53.277Z,7.50
2023-03-29T00:14:23.263Z,7.15
2023-03-29T00:16:53.605Z,7.38
2023-03-29T00:19:23.607Z,8.20
2023-03-29T00:21:53.812Z,7.82
2023-03-29T00:24:25.183Z,8.05
2023-03-29T00:26:55.364Z,8.30
2023-03-29T00:29:25.310Z,8.25
2023-03-29T00:31:57.063Z,8.27
2023-03-29T00:34:32.066Z,9.00
2023-03-29T00:37:02.301Z,8.60
2023-03-29T00:39:32.733Z,8.68
2023-03-29T00:42:03.828Z,9.25
2023-03-29T00:44:55.361Z,8.30
2023-03-29T00:47:34.925Z,8.30
2023-03-29T00:50:14.444Z,7.95
2023-03-29T00:52:50.016Z,9.30
2023-03-29T00:55:24.324Z,9.85
2023-03-29T00:57:57.340Z,9.00
2023-03-29T01:00:34.961Z,8.82
2023-03-29T01:03:14.641Z,9.25
2023-03-29T01:05:51.858Z,10.38
2023-03-29T01:08:56.393Z,9.65
2023-03-29T01:11:34.064Z,9.50
2023-03-29T01:14:11.787Z,8.63
2023-03-29T01:16:41.817Z,8.30
2023-03-29T01:19:17.048Z,9.55
2023-03-29T01:21:53.072Z,10.18
2023-03-29T01:24:39.140Z,8.48
2023-03-29T01:29:56.388Z,10.38
2023-03-29T01:32:28.807Z,9.07
2023-03-29T01:35:11.674Z,9.15
2023-03-29T01:38:00.387Z,9.30
2023-03-29T01:40:32.265Z,9.02
2023-03-29T01:43:23.477Z,10.95
2023-03-29T01:46:03.226Z,10.13
2023-03-29T01:48:45.512Z,10.00
2023-03-29T01:51:38.190Z,10.52
2023-03-29T01:56:52.941Z,10.38
2023-03-29T01:59:29.668Z,10.55
2023-03-29T02:02:02.646Z,10.57
2023-03-29T02:04:51.509Z,9.73
2023-03-29T02:07:27.654Z,9.38
2023-03-29T02:09:59.736Z,10.00
2023-03-29T02:12:30.071Z,11.50
2023-03-29T02:15:01.988Z,9.20
2023-03-29T02:17:32.481Z,10.25
2023-03-29T02:20:18.757Z,10.13
2023-03-29T02:22:58.883Z,10.65
2023-03-29T02:25:28.945Z,10.48
2023-03-29T02:27:59.541Z,11.35
2023-03-29T02:30:35.446Z,10.80
2023-03-29T02:33:16.777Z,10.77
2023-03-29T02:36:30.814Z,10.10
2023-03-29T02:39:03.149Z,10.48
2023-03-29T02:41:34.929Z,9.88
2023-03-29T02:44:09.309Z,11.20
2023-03-29T02:46:39.699Z,12.02
2023-03-29T02:49:11.542Z,12.05
2023-03-29T02:51:41.597Z,11.93
2023-03-29T02:54:19.535Z,11.43
2023-03-29T02:56:56.916Z,12.30
2023-03-29T02:59:27.714Z,12.07
2023-03-29T03:01:57.942Z,13.68
2023-03-29T03:04:30.685Z,13.43
2023-03-29T03:07:00.922Z,13.55
2023-03-29T03:09:32.954Z,14.35
2023-03-29T03:12:03.293Z,12.43
2023-03-29T03:14:33.831Z,12.98
2023-03-29T03:17:04.846Z,14.40
2023-03-29T03:22:07.247Z,10.95
2023-03-29T03:24:37.438Z,13.55
2023-03-29T03:27:07.718Z,13.68
2023-03-29T03:29:39.698Z,14.23
2023-03-29T03:32:28.454Z,14.38
2023-03-29T03:35:27.680Z,14.45
2023-03-29T03:37:57.605Z,11.98
2023-03-29T03:40:28.383Z,12.27
2023-03-29T03:42:58.584Z,12.85
2023-03-29T03:45:28.911Z,10.68
2023-03-29T03:48:10.486Z,12.13
2023-03-29T03:51:10.701Z,10.80
2023-03-29T03:53:40.647Z,11.98
2023-03-29T03:56:17.456Z,11.73
2023-03-29T03:59:08.298Z,11.90
2023-03-29T04:01:59.416Z,12.18
2023-03-29T04:04:29.970Z,14.00
2023-03-29T04:07:07.042Z,12.30
2023-03-29T04:09:44.420Z,10.63
2023-03-29T04:12:33.006Z,12.00
2023-03-29T04:15:05.034Z,11.52
2023-03-29T04:17:36.935Z,10.75
2023-03-29T04:20:17.018Z,11.73
2023-03-29T04:22:47.898Z,12.00
2023-03-29T04:25:18.594Z,11.18
2023-03-29T04:27:52.328Z,11.95
2023-03-29T04:30:33.867Z,10.45
2023-03-29T04:33:16.514Z,11.60
2023-03-29T04:35:51.352Z,11.10
2023-03-29T04:38:24.230Z,10.07
2023-03-29T04:40:56.529Z,11.93
2023-03-29T04:43:38.424Z,11.02
2023-03-29T04:46:44.175Z,10.85
2023-03-29T04:49:49.651Z,10.75
2023-03-29T04:52:34.468Z,11.23
2023-03-29T04:55:08.211Z,10.63
2023-03-29T04:57:48.940Z,9.80
2023-03-29T05:00:28.726Z,10.43
2023-03-29T05:03:21.013Z,10.23
2023-03-29T05:06:13.207Z,9.88
2023-03-29T05:08:43.730Z,10.27
2023-03-29T05:11:26.294Z,10.07
2023-03-29T05:13:58.463Z,10.90
2023-03-29T05:16:33.691Z,9.65
2023-03-29T05:19:03.927Z,10.50
2023-03-29T05:21:37.788Z,12.15
2023-03-29T05:24:11.192Z,10.95
2023-03-29T05:26:54.144Z,8.70
2023-03-29T05:29:24.818Z,8.52
2023-03-29T05:32:02.511Z,9.00
2023-03-29T05:34:33.196Z,7.45
2023-03-29T05:39:45.149Z,7.25
2023-03-29T05:42:16.817Z,7.93
2023-03-29T05:45:07.736Z,6.78
2023-03-29T05:47:38.069Z,5.97
2023-03-29T05:50:10.987Z,7.07
2023-03-29T05:52:42.264Z,6.95
2023-03-29T05:55:12.348Z,6.28
2023-03-29T05:57:42.692Z,6.80
2023-03-29T06:00:25.061Z,6.13
2023-03-29T06:03:17.913Z,6.53
2023-03-29T06:05:57.620Z,6.20
2023-03-29T06:08:29.718Z,6.35
2023-03-29T06:11:10.214Z,6.65
2023-03-29T06:13:59.347Z,6.53
2023-03-29T06:16:30.330Z,6.03
2023-03-29T06:19:00.581Z,6.72
2023-03-29T06:21:33.057Z,6.90
2023-03-29T06:24:05.193Z,5.47
2023-03-29T06:26:41.111Z,6.20
2023-03-29T06:29:11.494Z,6.15
2023-03-29T06:31:43.495Z,5.25
2023-03-29T06:34:28.738Z,5.75
2023-03-29T06:37:22.751Z,7.22
2023-03-29T06:40:02.134Z,7.00
2023-03-29T06:42:37.873Z,6.68
2023-03-29T06:45:34.442Z,7.13
2023-03-29T06:48:11.450Z,6.97
2023-03-29T06:50:43.106Z,5.72
2023-03-29T06:53:16.988Z,6.53
2023-03-29T06:55:55.810Z,7.68
2023-03-29T06:58:40.405Z,5.45
2023-03-29T07:01:39.942Z,5.93
2023-03-29T07:04:20.230Z,5.80
2023-03-29T07:07:13.248Z,6.35
2023-03-29T07:09:43.758Z,5.40
2023-03-29T07:12:32.840Z,5.18
2023-03-29T07:15:04.322Z,5.90
2023-03-29T07:18:00.290Z,5.38
2023-03-29T07:20:30.501Z,5.25
2023-03-29T07:23:10.808Z,5.03
2023-03-29T07:25:44.008Z,4.93
2023-03-29T07:28:14.268Z,4.78
2023-03-29T07:30:44.146Z,5.32
2023-03-29T07:33:18.113Z,6.72
2023-03-29T07:36:06.132Z,4.70
2023-03-29T07:38:38.034Z,5.82
2023-03-29T07:41:15.935Z,5.60
2023-03-29T07:43:52.961Z,5.20
2023-03-29T07:46:27.595Z,5.00
2023-03-29T07:48:59.192Z,4.80
2023-03-29T07:51:29.352Z,5.20
2023-03-29T07:56:49.175Z,5.55
2023-03-29T07:59:36.170Z,4.43
2023-03-29T08:04:58.483Z,4.90
2023-03-29T08:07:28.645Z,5.95
2023-03-29T08:10:14.676Z,5.40
2023-03-29T08:13:12.197Z,4.47
2023-03-29T08:16:05.469Z,4.45
2023-03-29T08:18:40.921Z,5.45
2023-03-29T08:21:12.029Z,5.13
2023-03-29T08:23:42.395Z,4.60
2023-03-29T08:26:26.118Z,4.70
2023-03-29T08:28:57.060Z,4.43
2023-03-29T08:31:29.845Z,4.78
2023-03-29T08:33:59.753Z,4.65
2023-03-29T08:36:54.190Z,4.10
2023-03-29T08:39:30.688Z,4.35
2023-03-29T08:42:31.305Z,4.35
2023-03-29T08:45:19.724Z,4.97
2023-03-29T08:48:33.309Z,4.43
2023-03-29T08:51:11.785Z,5.22
2023-03-29T08:53:47.206Z,4.70
2023-03-29T08:56:41.958Z,4.68
2023-03-29T08:59:29.658Z,4.88
2023-03-29T09:02:03.889Z,4.50
2023-03-29T09:04:37.757Z,4.00
2023-03-29T09:07:30.658Z,5.13
2023-03-29T09:10:04.366Z,5.13
2023-03-29T09:13:00.225Z,4.68
2023-03-29T09:15:39.436Z,5.10
2023-03-29T09:18:25.724Z,5.10
2023-03-29T09:21:03.103Z,4.97
2023-03-29T09:23:52.733Z,5.32
2023-03-29T09:26:54.682Z,5.28
2023-03-29T09:30:27.640Z,5.30
2023-03-29T09:33:23.583Z,5.00
2023-03-29T09:36:26.182Z,5.25
2023-03-29T09:38:56.755Z,4.78
2023-03-29T09:41:42.969Z,4.97
2023-03-29T09:44:30.180Z,4.82
2023-03-29T09:47:30.809Z,5.22
2023-03-29T09:50:22.991Z,5.22
2023-03-29T09:52:58.006Z,4.85
2023-03-29T09:55:33.406Z,5.22
2023-03-29T09:58:34.175Z,5.43
2023-03-29T10:01:11.178Z,5.30
2023-03-29T10:03:43.708Z,5.05
2023-03-29T10:06:19.901Z,5.32
2023-03-29T10:09:00.045Z,5.60
2023-03-29T10:11:41.826Z,5.15
2023-03-29T10:14:19.444Z,5.55
2023-03-29T10:16:57.963Z,6.28
2023-03-29T10:19:36.583Z,5.13
2023-03-29T10:27:12.759Z,5.40
2023-03-29T10:29:44.512Z,4.22
2023-03-29T10:32:39.667Z,4.10
2023-03-29T10:35:43.124Z,4.55
2023-03-29T10:38:16.069Z,4.53
2023-03-29T10:40:51.439Z,4.55
2023-03-29T10:43:21.656Z,4.07
2023-03-29T10:45:53.818Z,4.43
2023-03-29T10:48:31.516Z,4.20
2023-03-29T10:51:04.452Z,3.80
2023-03-29T10:53:39.368Z,3.90
2023-03-29T10:56:25.759Z,3.80
2023-03-29T10:59:24.640Z,3.88
2023-03-29T11:04:48.734Z,4.15
2023-03-29T11:07:31.034Z,3.88
2023-03-29T11:10:38.447Z,3.90
2023-03-29T11:13:42.200Z,3.45
2023-03-29T11:16:39.142Z,3.78
2023-03-29T11:19:32.778Z,3.47
2023-03-29T11:22:26.551Z,3.53
2023-03-29T11:25:01.984Z,3.30
2023-03-29T11:27:47.381Z,3.78
2023-03-29T11:33:04.009Z,3.53
2023-03-29T11:35:39.303Z,3.50
2023-03-29T11:38:33.462Z,3.15
2023-03-29T11:41:19.191Z,3.30
2023-03-29T11:43:55.979Z,3.22
2023-03-29T11:46:42.934Z,3.55
2023-03-29T11:49:31.567Z,2.83
2023-03-29T11:52:16.487Z,3.25
2023-03-29T11:54:59.953Z,3.25
2023-03-29T11:57:44.670Z,2.97
2023-03-29T12:00:25.219Z,3.33
2023-03-29T12:03:14.320Z,3.40
2023-03-29T12:05:52.766Z,2.70
2023-03-29T12:08:39.719Z,3.03
2023-03-29T12:11:33.863Z,2.75
2023-03-29T12:14:15.768Z,2.88
2023-03-29T12:17:06.291Z,3.58
2023-03-29T12:19:43.750Z,2.90
2023-03-29T12:22:14.057Z,3.05
2023-03-29T12:24:49.913Z,3.22
2023-03-29T12:27:29.316Z,2.92
2023-03-29T12:30:20.720Z,3.08
2023-03-29T12:33:28.694Z,2.75
2023-03-29T12:36:44.848Z,2.70
2023-03-29T12:39:54.185Z,2.70
2023-03-29T12:42:55.592Z,3.10
2023-03-29T12:48:21.618Z,2.72
2023-03-29T12:54:02.700Z,2.80
2023-03-29T12:56:43.984Z,2.60
2023-03-29T12:59:48.244Z,2.42
2023-03-29T13:02:19.169Z,4.75
2023-03-29T13:04:55.026Z,2.92
2023-03-29T13:07:25.267Z,2.80
2023-03-29T13:10:10.546Z,2.47
2023-03-29T13:12:47.028Z,2.97
2023-03-29T13:15:18.113Z,2.95
2023-03-29T13:18:17.419Z,2.55
2023-03-29T13:20:48.524Z,3.13
2023-03-29T13:26:28.986Z,3.08
2023-03-29T13:29:08.365Z,3.20
2023-03-29T13:31:45.762Z,3.58
2023-03-29T13:34:37.111Z,3.08
2023-03-29T13:37:31.196Z,3.40
2023-03-29T13:40:01.411Z,3.50
2023-03-29T13:42:37.713Z,3.10
2023-03-29T13:45:29.515Z,3.40
2023-03-29T13:48:35.187Z,2.70
2023-03-29T13:51:23.558Z,3.35
2023-03-29T13:54:23.234Z,3.17
2023-03-29T13:57:12.566Z,2.92
2023-03-29T14:00:13.464Z,3.40
2023-03-29T14:02:50.345Z,2.63
2023-03-29T14:05:26.260Z,3.08
2023-03-29T14:07:57.328Z,3.40
2023-03-29T14:10:37.393Z,3.00
2023-03-29T14:13:08.320Z,3.25
2023-03-29T14:15:48.013Z,3.47
2023-03-29T14:18:22.775Z,3.03
2023-03-29T14:20:56.713Z,3.05
2023-03-29T14:23:31.765Z,3.08
2023-03-29T14:26:15.654Z,2.75
2023-03-29T14:28:51.806Z,2.85
2023-03-29T14:31:27.959Z,3.28
2023-03-29T14:34:02.715Z,3.30
2023-03-29T14:36:34.788Z,3.35
2023-03-29T14:39:21.014Z,2.97
2023-03-29T14:41:56.644Z,11.68
2023-03-29T14:44:34.682Z,3.38
2023-03-29T14:47:05.552Z,3.40
2023-03-29T14:49:36.913Z,2.75
2023-03-29T14:52:07.827Z,3.25
2023-03-29T14:54:39.103Z,3.28
2023-03-29T14:57:09.487Z,2.83
2023-03-29T14:59:43.895Z,3.30
2023-03-29T15:02:34.772Z,3.08
2023-03-29T15:05:27.619Z,2.95
2023-03-29T15:07:57.748Z,2.80
2023-03-29T15:10:28.362Z,3.45
2023-03-29T15:12:59.478Z,3.50
2023-03-29T15:15:32.568Z,3.05
2023-03-29T15:18:03.879Z,3.03
2023-03-29T15:20:39.992Z,3.08
2023-03-29T15:23:30.049Z,3.17
2023-03-29T15:26:11.678Z,2.80
2023-03-29T15:28:56.801Z,3.08
2023-03-29T15:31:34.346Z,2.60
2023-03-29T15:34:12.916Z,3.13
2023-03-29T15:36:46.332Z,2.97
2023-03-29T15:39:18.255Z,2.65
2023-03-29T15:41:51.595Z,2.90
2023-03-29T15:44:34.812Z,3.13
2023-03-29T15:47:05.381Z,2.90
2023-03-29T15:49:35.055Z,2.72
2023-03-29T15:52:05.991Z,2.72
2023-03-29T15:54:38.305Z,2.78
2023-03-29T15:57:13.326Z,3.00
2023-03-29T15:59:44.427Z,2.90
2023-03-29T16:02:21.307Z,2.50
2023-03-29T16:04:51.475Z,2.90
2023-03-29T16:07:22.096Z,2.78
2023-03-29T16:09:52.509Z,2.83
2023-03-29T16:12:22.270Z,2.80
2023-03-29T16:14:52.702Z,2.78
2023-03-29T16:17:22.630Z,2.60
2023-03-29T16:19:53.238Z,2.50
2023-03-29T16:22:23.696Z,2.47
2023-03-29T16:24:54.164Z,2.85
2023-03-29T16:27:24.082Z,2.67
2023-03-29T16:29:54.456Z,2.80
2023-03-29T16:32:24.209Z,2.90
2023-03-29T16:34:54.796Z,2.58
2023-03-29T16:37:24.598Z,2.53
2023-03-29T16:39:55.167Z,3.20
2023-03-29T16:42:25.573Z,2.95
2023-03-29T16:44:55.890Z,3.50
2023-03-29T16:47:26.315Z,2.90
2023-03-29T16:49:56.247Z,3.13
2023-03-29T16:52:26.853Z,2.88
2023-03-29T16:54:56.899Z,3.30
2023-03-29T16:57:27.748Z,2.67
2023-03-29T16:59:57.999Z,3.08
2023-03-29T17:02:28.332Z,3.00
2023-03-29T17:04:58.657Z,2.40
2023-03-29T17:07:30.537Z,2.80
2023-03-29T17:10:00.538Z,3.10
2023-03-29T17:12:30.852Z,3.03
2023-03-29T17:15:01.032Z,3.47
2023-03-29T17:17:31.447Z,2.97
2023-03-29T17:20:01.589Z,2.97
2023-03-29T17:22:32.047Z,2.58
2023-03-29T17:25:04.595Z,2.90
2023-03-29T17:27:36.749Z,3.13
2023-03-29T17:30:08.141Z,3.22
2023-03-29T17:32:38.507Z,2.70
2023-03-29T17:35:09.520Z,3.35
2023-03-29T17:37:39.930Z,2.45
2023-03-29T17:40:15.012Z,2.30
2023-03-29T17:42:49.890Z,2.35
2023-03-29T17:45:20.553Z,2.70
2023-03-29T17:47:50.521Z,2.53
2023-03-29T17:50:21.063Z,2.88
2023-03-29T17:52:50.885Z,2.75
2023-03-29T17:55:22.227Z,3.30
2023-03-29T17:57:52.814Z,3.00
2023-03-29T18:00:23.058Z,2.70
2023-03-29T18:02:53.478Z,3.00
2023-03-29T18:05:23.459Z,2.90
2023-03-29T18:07:53.966Z,3.40
2023-03-29T18:10:24.067Z,3.28
2023-03-29T18:12:58.493Z,3.38
2023-03-29T18:15:28.361Z,3.00
2023-03-29T18:17:59.848Z,3.33
2023-03-29T18:20:37.182Z,3.47
2023-03-29T18:23:07.708Z,3.47
2023-03-29T18:25:37.371Z,3.40
2023-03-29T18:28:07.735Z,3.08
2023-03-29T18:30:37.615Z,2.95
2023-03-29T18:33:07.937Z,3.60
2023-03-29T18:35:38.161Z,3.53
2023-03-29T18:38:08.904Z,3.25
2023-03-29T18:40:40.249Z,3.35
2023-03-29T18:43:10.469Z,3.17
2023-03-29T18:45:40.390Z,3.53
2023-03-29T18:48:11.071Z,3.58
2023-03-29T18:50:41.074Z,3.53
2023-03-29T18:53:10.667Z,3.75
2023-03-29T18:55:44.293Z,3.45
2023-03-29T18:58:16.057Z,3.63
2023-03-29T19:00:46.636Z,3.58
2023-03-29T19:03:16.497Z,3.88
2023-03-29T19:05:46.948Z,3.15
2023-03-29T19:08:16.734Z,3.65
2023-03-29T19:10:47.132Z,4.00
2023-03-29T19:13:16.694Z,3.17
2023-03-29T19:15:46.638Z,2.72
2023-03-29T19:18:17.159Z,2.95
2023-03-29T19:20:46.853Z,3.00
2023-03-29T19:23:17.026Z,2.95
2023-03-29T19:25:54.078Z,2.30
2023-03-29T19:28:25.846Z,3.03
2023-03-29T19:30:57.351Z,2.70
2023-03-29T19:33:27.951Z,2.50
2023-03-29T19:35:58.265Z,3.03
2023-03-29T19:38:28.702Z,2.63
2023-03-29T19:40:58.514Z,2.47
2023-03-29T19:43:28.728Z,2.72
2023-03-29T19:45:58.569Z,2.70
2023-03-29T19:48:28.806Z,5.07
2023-03-29T19:51:03.933Z,5.97
2023-03-29T19:53:37.021Z,4.75
2023-03-29T19:56:12.409Z,4.32
2023-03-29T19:58:43.905Z,34.63
2023-03-29T20:01:16.684Z,11.65
2023-03-29T20:03:47.909Z,4.90
2023-03-29T20:06:19.676Z,3.25
2023-03-29T20:08:50.064Z,2.97
2023-03-29T20:11:24.825Z,3.80
2023-03-29T20:13:55.141Z,4.18
2023-03-29T20:16:25.588Z,3.78
2023-03-29T20:18:57.333Z,3.03
2023-03-29T20:21:27.146Z,2.40
2023-03-29T20:23:58.447Z,2.20
2023-03-29T20:26:29.230Z,2.15
2023-03-29T20:28:59.151Z,2.22
2023-03-29T20:31:30.598Z,1.88
2023-03-29T20:34:00.962Z,1.80
2023-03-29T20:36:31.707Z,1.58
2023-03-29T20:39:02.330Z,2.30
2023-03-29T20:41:34.904Z,2.13
2023-03-29T20:44:06.765Z,1.95
2023-03-29T20:46:36.961Z,1.88
2023-03-29T20:49:09.941Z,1.70
2023-03-29T20:51:39.854Z,1.77
2023-03-29T20:54:11.150Z,1.88
2023-03-29T20:56:43.511Z,1.67
2023-03-29T20:59:13.715Z,1.55
2023-03-29T21:01:43.551Z,1.55
2023-03-29T21:04:13.986Z,1.42
2023-03-29T21:06:46.617Z,1.77
2023-03-29T21:09:22.078Z,1.92
2023-03-29T21:11:52.733Z,2.05
2023-03-29T21:14:23.433Z,2.22
2023-03-29T21:16:53.202Z,2.03
2023-03-29T21:19:25.352Z,2.67
2023-03-29T21:21:56.143Z,2.15
2023-03-29T21:24:26.546Z,2.58
2023-03-29T21:26:56.558Z,2.75
2023-03-29T21:29:27.078Z,2.85
2023-03-29T21:31:57.011Z,3.10
2023-03-29T21:34:27.230Z,2.75
2023-03-29T21:36:57.196Z,2.83
2023-03-29T21:39:28.021Z,2.90
2023-03-29T21:41:58.073Z,2.88
2023-03-29T21:44:28.228Z,2.83
2023-03-29T21:46:57.933Z,3.08
2023-03-29T21:49:27.903Z,2.90
2023-03-29T21:51:58.323Z,3.35
2023-03-29T21:54:28.895Z,3.42
2023-03-29T21:56:59.068Z,3.17
2023-03-29T21:59:29.272Z,3.60
2023-03-29T22:01:59.642Z,3.58
2023-03-29T22:04:36.564Z,3.72
2023-03-29T22:07:11.740Z,3.53
2023-03-29T22:09:43.448Z,3.05
2023-03-29T22:12:13.594Z,3.65
2023-03-29T22:14:43.189Z,3.17
2023-03-29T22:17:13.143Z,2.75
2023-03-29T22:19:43.807Z,3.35
2023-03-29T22:22:16.051Z,3.10
2023-03-29T22:24:46.458Z,2.95
2023-03-29T22:27:16.037Z,2.67
2023-03-29T22:29:45.850Z,2.63
2023-03-29T22:32:16.742Z,2.90
2023-03-29T22:34:46.743Z,3.88
2023-03-29T22:37:17.029Z,4.03
2023-03-29T22:39:47.037Z,3.38
2023-03-29T22:42:17.368Z,3.38
2023-03-29T22:44:47.246Z,4.10
2023-03-29T22:47:17.600Z,3.13
2023-03-29T22:49:47.402Z,3.03
2023-03-29T22:52:20.499Z,2.58
2023-03-29T22:54:50.288Z,2.28
2023-03-29T22:57:20.503Z,2.30
2023-03-29T22:59:51.892Z,3.08
2023-03-29T23:02:22.827Z,2.40
2023-03-29T23:04:52.703Z,2.70
2023-03-29T23:07:22.392Z,2.80
2023-03-29T23:09:52.540Z,2.53
2023-03-29T23:12:22.312Z,2.58
2023-03-29T23:14:54.234Z,2.72
2023-03-29T23:19:53.994Z,3.05
2023-03-29T23:22:23.854Z,3.35
2023-03-29T23:24:53.472Z,3.92
2023-03-29T23:27:23.592Z,3.78
2023-03-29T23:29:53.250Z,3.90
2023-03-29T23:32:23.135Z,3.47
2023-03-29T23:34:54.221Z,3.20
2023-03-29T23:37:24.323Z,3.35
2023-03-29T23:39:54.529Z,3.30
2023-03-29T23:42:24.877Z,3.20
2023-03-29T23:44:54.565Z,3.47
2023-03-29T23:47:24.846Z,3.17
2023-03-29T23:49:54.463Z,2.80
2023-03-29T23:52:24.285Z,3.90
2023-03-29T23:54:54.470Z,3.67
2023-03-29T23:57:24.589Z,3.25
